sensor_id;sensor_type;location;lat;lon;timestamp;P1;durP1;ratioP1;P2;durP2;ratioP2
72601;SDS011;60644;55.858;37.390;2023-10-31T00:00:17;6.47;;;2.63;;
72601;SDS011;60644;55.858;37.390;2023-10-31T00:02:43;7.25;;;3.15;;
72601;SDS011;60644;55.858;37.390;2023-10-31T00:05:08;6.90;;;2.43;;
72601;SDS011;60644;55.858;37.390;2023-10-31T00:07:34;8.40;;;2.80;;
72601;SDS011;60644;55.858;37.390;2023-10-31T00:10:00;7.20;;;2.90;;
72601;SDS011;60644;55.858;37.390;2023-10-31T00:12:25;6.87;;;2.50;;
72601;SDS011;60644;55.858;37.390;2023-10-31T00:14:51;7.10;;;2.80;;
72601;SDS011;60644;55.858;37.390;2023-10-31T00:17:16;8.10;;;2.80;;
72601;SDS011;60644;55.858;37.390;2023-10-31T00:19:42;7.35;;;2.75;;
72601;SDS011;60644;55.858;37.390;2023-10-31T00:22:09;6.30;;;2.50;;
72601;SDS011;60644;55.858;37.390;2023-10-31T00:24:35;7.33;;;2.83;;
72601;SDS011;60644;55.858;37.390;2023-10-31T00:27:01;6.53;;;2.90;;
72601;SDS011;60644;55.858;37.390;2023-10-31T00:29:27;6.78;;;2.92;;
72601;SDS011;60644;55.858;37.390;2023-10-31T00:31:52;9.15;;;3.20;;
72601;SDS011;60644;55.858;37.390;2023-10-31T00:34:18;5.50;;;2.47;;
72601;SDS011;60644;55.858;37.390;2023-10-31T00:36:44;8.65;;;2.67;;
72601;SDS011;60644;55.858;37.390;2023-10-31T00:39:10;6.30;;;2.60;;
72601;SDS011;60644;55.858;37.390;2023-10-31T00:41:35;7.53;;;2.80;;
72601;SDS011;60644;55.858;37.390;2023-10-31T00:44:01;7.18;;;2.72;;
72601;SDS011;60644;55.858;37.390;2023-10-31T00:46:27;8.18;;;2.90;;
72601;SDS011;60644;55.858;37.390;2023-10-31T00:48:53;8.52;;;2.80;;
72601;SDS011;60644;55.858;37.390;2023-10-31T00:51:21;7.10;;;2.97;;
72601;SDS011;60644;55.858;37.390;2023-10-31T00:53:47;8.87;;;3.13;;
72601;SDS011;60644;55.858;37.390;2023-10-31T00:56:13;8.23;;;3.03;;
72601;SDS011;60644;55.858;37.390;2023-10-31T00:58:38;7.67;;;2.47;;
72601;SDS011;60644;55.858;37.390;2023-10-31T01:01:04;7.13;;;2.90;;
72601;SDS011;60644;55.858;37.390;2023-10-31T01:03:30;6.28;;;2.53;;
72601;SDS011;60644;55.858;37.390;2023-10-31T01:05:55;7.87;;;2.77;;
72601;SDS011;60644;55.858;37.390;2023-10-31T01:08:21;10.90;;;3.20;;
72601;SDS011;60644;55.858;37.390;2023-10-31T01:10:47;7.60;;;2.78;;
72601;SDS011;60644;55.858;37.390;2023-10-31T01:13:32;8.75;;;3.05;;
72601;SDS011;60644;55.858;37.390;2023-10-31T01:15:58;7.73;;;3.10;;
72601;SDS011;60644;55.858;37.390;2023-10-31T01:18:23;6.35;;;2.60;;
72601;SDS011;60644;55.858;37.390;2023-10-31T01:20:49;6.07;;;2.80;;
72601;SDS011;60644;55.858;37.390;2023-10-31T01:23:15;7.82;;;3.40;;
72601;SDS011;60644;55.858;37.390;2023-10-31T01:25:40;6.70;;;3.03;;
72601;SDS011;60644;55.858;37.390;2023-10-31T01:28:06;6.15;;;2.42;;
72601;SDS011;60644;55.858;37.390;2023-10-31T01:30:32;6.20;;;2.40;;
72601;SDS011;60644;55.858;37.390;2023-10-31T01:32:57;12.57;;;3.03;;
72601;SDS011;60644;55.858;37.390;2023-10-31T01:35:23;6.35;;;2.50;;
72601;SDS011;60644;55.858;37.390;2023-10-31T01:37:48;11.47;;;3.53;;
72601;SDS011;60644;55.858;37.390;2023-10-31T01:40:14;7.07;;;2.80;;
72601;SDS011;60644;55.858;37.390;2023-10-31T01:42:40;8.57;;;3.20;;
72601;SDS011;60644;55.858;37.390;2023-10-31T01:45:06;7.78;;;2.67;;
72601;SDS011;60644;55.858;37.390;2023-10-31T01:47:32;7.53;;;2.85;;
72601;SDS011;60644;55.858;37.390;2023-10-31T01:49:58;7.37;;;2.50;;
72601;SDS011;60644;55.858;37.390;2023-10-31T01:52:25;5.72;;;2.63;;
72601;SDS011;60644;55.858;37.390;2023-10-31T01:54:50;5.90;;;2.30;;
72601;SDS011;60644;55.858;37.390;2023-10-31T01:57:16;6.70;;;2.93;;
72601;SDS011;60644;55.858;37.390;2023-10-31T01:59:44;6.20;;;2.60;;
72601;SDS011;60644;55.858;37.390;2023-10-31T02:02:09;6.15;;;2.53;;
72601;SDS011;60644;55.858;37.390;2023-10-31T02:04:35;7.13;;;2.75;;
72601;SDS011;60644;55.858;37.390;2023-10-31T02:07:01;7.30;;;2.93;;
72601;SDS011;60644;55.858;37.390;2023-10-31T02:09:27;8.95;;;2.72;;
72601;SDS011;60644;55.858;37.390;2023-10-31T02:11:54;5.97;;;2.33;;
72601;SDS011;60644;55.858;37.390;2023-10-31T02:14:24;6.63;;;2.30;;
72601;SDS011;60644;55.858;37.390;2023-10-31T02:16:51;5.88;;;2.33;;
72601;SDS011;60644;55.858;37.390;2023-10-31T02:19:18;6.20;;;2.40;;
72601;SDS011;60644;55.858;37.390;2023-10-31T02:21:44;6.15;;;2.22;;
72601;SDS011;60644;55.858;37.390;2023-10-31T02:24:10;6.67;;;2.53;;
72601;SDS011;60644;55.858;37.390;2023-10-31T02:26:37;5.75;;;2.25;;
72601;SDS011;60644;55.858;37.390;2023-10-31T02:29:03;8.47;;;2.60;;
72601;SDS011;60644;55.858;37.390;2023-10-31T02:31:29;6.38;;;2.33;;
72601;SDS011;60644;55.858;37.390;2023-10-31T02:33:55;6.80;;;2.60;;
72601;SDS011;60644;55.858;37.390;2023-10-31T02:36:20;5.33;;;2.00;;
72601;SDS011;60644;55.858;37.390;2023-10-31T02:38:46;8.40;;;3.80;;
72601;SDS011;60644;55.858;37.390;2023-10-31T02:41:13;5.63;;;2.33;;
72601;SDS011;60644;55.858;37.390;2023-10-31T02:43:40;4.93;;;2.03;;
72601;SDS011;60644;55.858;37.390;2023-10-31T02:46:06;5.20;;;2.20;;
72601;SDS011;60644;55.858;37.390;2023-10-31T02:48:32;6.50;;;2.40;;
72601;SDS011;60644;55.858;37.390;2023-10-31T02:51:04;6.53;;;2.63;;
72601;SDS011;60644;55.858;37.390;2023-10-31T02:53:30;6.07;;;2.57;;
72601;SDS011;60644;55.858;37.390;2023-10-31T02:55:55;8.75;;;2.58;;
72601;SDS011;60644;55.858;37.390;2023-10-31T02:58:21;6.63;;;2.33;;
72601;SDS011;60644;55.858;37.390;2023-10-31T03:00:47;8.93;;;3.38;;
72601;SDS011;60644;55.858;37.390;2023-10-31T03:03:13;5.75;;;2.17;;
72601;SDS011;60644;55.858;37.390;2023-10-31T03:05:38;7.33;;;2.43;;
72601;SDS011;60644;55.858;37.390;2023-10-31T03:08:04;6.95;;;2.40;;
72601;SDS011;60644;55.858;37.390;2023-10-31T03:10:30;8.43;;;2.50;;
72601;SDS011;60644;55.858;37.390;2023-10-31T03:12:55;6.05;;;2.20;;
72601;SDS011;60644;55.858;37.390;2023-10-31T03:15:21;6.50;;;2.57;;
72601;SDS011;60644;55.858;37.390;2023-10-31T03:17:47;8.48;;;2.60;;
72601;SDS011;60644;55.858;37.390;2023-10-31T03:20:12;6.47;;;2.60;;
72601;SDS011;60644;55.858;37.390;2023-10-31T03:22:38;5.97;;;2.20;;
72601;SDS011;60644;55.858;37.390;2023-10-31T03:25:04;6.40;;;2.23;;
72601;SDS011;60644;55.858;37.390;2023-10-31T03:27:31;6.85;;;2.10;;
72601;SDS011;60644;55.858;37.390;2023-10-31T03:29:57;6.10;;;2.50;;
72601;SDS011;60644;55.858;37.390;2023-10-31T03:32:23;6.03;;;2.33;;
72601;SDS011;60644;55.858;37.390;2023-10-31T03:34:48;7.73;;;2.47;;
72601;SDS011;60644;55.858;37.390;2023-10-31T03:37:14;6.72;;;2.40;;
72601;SDS011;60644;55.858;37.390;2023-10-31T03:39:40;7.57;;;2.55;;
72601;SDS011;60644;55.858;37.390;2023-10-31T03:42:06;5.97;;;2.42;;
72601;SDS011;60644;55.858;37.390;2023-10-31T03:44:31;5.83;;;2.50;;
72601;SDS011;60644;55.858;37.390;2023-10-31T03:46:57;6.00;;;2.50;;
72601;SDS011;60644;55.858;37.390;2023-10-31T03:49:22;7.03;;;2.53;;
72601;SDS011;60644;55.858;37.390;2023-10-31T03:51:48;7.15;;;3.08;;
72601;SDS011;60644;55.858;37.390;2023-10-31T03:54:15;6.80;;;2.90;;
72601;SDS011;60644;55.858;37.390;2023-10-31T03:56:41;6.70;;;2.50;;
72601;SDS011;60644;55.858;37.390;2023-10-31T03:59:07;8.05;;;3.08;;
72601;SDS011;60644;55.858;37.390;2023-10-31T04:01:33;7.63;;;2.70;;
72601;SDS011;60644;55.858;37.390;2023-10-31T04:03:59;6.63;;;2.42;;
72601;SDS011;60644;55.858;37.390;2023-10-31T04:06:25;7.03;;;2.40;;
72601;SDS011;60644;55.858;37.390;2023-10-31T04:08:50;8.05;;;3.10;;
72601;SDS011;60644;55.858;37.390;2023-10-31T04:11:16;6.93;;;2.40;;
72601;SDS011;60644;55.858;37.390;2023-10-31T04:13:42;5.40;;;2.30;;
72601;SDS011;60644;55.858;37.390;2023-10-31T04:16:07;7.05;;;2.80;;
72601;SDS011;60644;55.858;37.390;2023-10-31T04:18:33;6.30;;;2.77;;
72601;SDS011;60644;55.858;37.390;2023-10-31T04:20:59;5.75;;;2.60;;
72601;SDS011;60644;55.858;37.390;2023-10-31T04:23:24;5.77;;;1.93;;
72601;SDS011;60644;55.858;37.390;2023-10-31T04:25:50;5.93;;;2.10;;
72601;SDS011;60644;55.858;37.390;2023-10-31T04:28:18;5.68;;;2.10;;
72601;SDS011;60644;55.858;37.390;2023-10-31T04:30:43;6.65;;;2.17;;
72601;SDS011;60644;55.858;37.390;2023-10-31T04:33:09;6.23;;;1.87;;
72601;SDS011;60644;55.858;37.390;2023-10-31T04:35:35;5.60;;;2.22;;
72601;SDS011;60644;55.858;37.390;2023-10-31T04:38:00;7.17;;;2.70;;
72601;SDS011;60644;55.858;37.390;2023-10-31T04:40:26;8.15;;;2.22;;
72601;SDS011;60644;55.858;37.390;2023-10-31T04:42:52;6.03;;;2.37;;
72601;SDS011;60644;55.858;37.390;2023-10-31T04:45:17;6.77;;;2.70;;
72601;SDS011;60644;55.858;37.390;2023-10-31T04:47:43;6.45;;;2.95;;
72601;SDS011;60644;55.858;37.390;2023-10-31T04:50:09;6.18;;;1.88;;
72601;SDS011;60644;55.858;37.390;2023-10-31T04:52:35;5.47;;;2.00;;
72601;SDS011;60644;55.858;37.390;2023-10-31T04:55:01;5.72;;;2.03;;
72601;SDS011;60644;55.858;37.390;2023-10-31T04:57:27;5.63;;;2.33;;
72601;SDS011;60644;55.858;37.390;2023-10-31T04:59:52;6.18;;;2.00;;
72601;SDS011;60644;55.858;37.390;2023-10-31T05:02:23;6.47;;;2.35;;
72601;SDS011;60644;55.858;37.390;2023-10-31T05:04:48;6.23;;;2.63;;
72601;SDS011;60644;55.858;37.390;2023-10-31T05:07:16;6.55;;;2.60;;
72601;SDS011;60644;55.858;37.390;2023-10-31T05:09:42;7.68;;;2.72;;
72601;SDS011;60644;55.858;37.390;2023-10-31T05:12:08;6.60;;;2.40;;
72601;SDS011;60644;55.858;37.390;2023-10-31T05:14:33;6.38;;;2.55;;
72601;SDS011;60644;55.858;37.390;2023-10-31T05:16:59;7.63;;;2.30;;
72601;SDS011;60644;55.858;37.390;2023-10-31T05:19:25;6.97;;;2.58;;
72601;SDS011;60644;55.858;37.390;2023-10-31T05:21:51;6.13;;;2.65;;
72601;SDS011;60644;55.858;37.390;2023-10-31T05:24:17;7.65;;;2.72;;
72601;SDS011;60644;55.858;37.390;2023-10-31T05:26:46;7.07;;;2.67;;
72601;SDS011;60644;55.858;37.390;2023-10-31T05:29:11;9.07;;;3.33;;
72601;SDS011;60644;55.858;37.390;2023-10-31T05:31:37;8.80;;;3.58;;
72601;SDS011;60644;55.858;37.390;2023-10-31T05:34:03;9.15;;;3.92;;
72601;SDS011;60644;55.858;37.390;2023-10-31T05:36:29;9.40;;;4.13;;
72601;SDS011;60644;55.858;37.390;2023-10-31T05:38:55;11.52;;;4.90;;
72601;SDS011;60644;55.858;37.390;2023-10-31T05:41:20;12.77;;;5.80;;
72601;SDS011;60644;55.858;37.390;2023-10-31T05:43:46;10.65;;;4.95;;
72601;SDS011;60644;55.858;37.390;2023-10-31T05:46:12;9.20;;;4.80;;
72601;SDS011;60644;55.858;37.390;2023-10-31T05:48:41;12.07;;;5.00;;
72601;SDS011;60644;55.858;37.390;2023-10-31T05:51:10;9.95;;;4.28;;
72601;SDS011;60644;55.858;37.390;2023-10-31T05:53:38;9.38;;;4.18;;
72601;SDS011;60644;55.858;37.390;2023-10-31T05:56:04;9.20;;;4.10;;
72601;SDS011;60644;55.858;37.390;2023-10-31T05:58:30;10.23;;;4.13;;
72601;SDS011;60644;55.858;37.390;2023-10-31T06:00:55;9.02;;;4.50;;
72601;SDS011;60644;55.858;37.390;2023-10-31T06:03:21;11.27;;;4.78;;
72601;SDS011;60644;55.858;37.390;2023-10-31T06:05:47;10.00;;;4.95;;
72601;SDS011;60644;55.858;37.390;2023-10-31T06:08:13;10.40;;;5.50;;
72601;SDS011;60644;55.858;37.390;2023-10-31T06:10:41;10.57;;;5.80;;
72601;SDS011;60644;55.858;37.390;2023-10-31T06:13:07;12.05;;;6.72;;
72601;SDS011;60644;55.858;37.390;2023-10-31T06:15:32;13.00;;;7.07;;
72601;SDS011;60644;55.858;37.390;2023-10-31T06:17:58;12.95;;;6.50;;
72601;SDS011;60644;55.858;37.390;2023-10-31T06:20:24;11.50;;;6.83;;
72601;SDS011;60644;55.858;37.390;2023-10-31T06:22:49;12.68;;;7.00;;
72601;SDS011;60644;55.858;37.390;2023-10-31T06:25:15;12.57;;;6.77;;
72601;SDS011;60644;55.858;37.390;2023-10-31T06:27:41;12.45;;;7.28;;
72601;SDS011;60644;55.858;37.390;2023-10-31T06:30:06;15.83;;;7.90;;
72601;SDS011;60644;55.858;37.390;2023-10-31T06:32:32;15.68;;;7.57;;
72601;SDS011;60644;55.858;37.390;2023-10-31T06:34:58;11.97;;;6.70;;
72601;SDS011;60644;55.858;37.390;2023-10-31T06:37:23;12.77;;;7.60;;
72601;SDS011;60644;55.858;37.390;2023-10-31T06:39:49;15.00;;;7.18;;
72601;SDS011;60644;55.858;37.390;2023-10-31T06:42:14;13.90;;;8.23;;
72601;SDS011;60644;55.858;37.390;2023-10-31T06:44:40;14.07;;;7.50;;
72601;SDS011;60644;55.858;37.390;2023-10-31T06:47:06;14.67;;;7.27;;
72601;SDS011;60644;55.858;37.390;2023-10-31T06:49:31;13.87;;;7.40;;
72601;SDS011;60644;55.858;37.390;2023-10-31T06:51:57;14.38;;;7.50;;
72601;SDS011;60644;55.858;37.390;2023-10-31T06:54:22;16.50;;;7.93;;
72601;SDS011;60644;55.858;37.390;2023-10-31T06:56:48;13.93;;;7.63;;
72601;SDS011;60644;55.858;37.390;2023-10-31T06:59:13;16.15;;;8.65;;
72601;SDS011;60644;55.858;37.390;2023-10-31T07:01:39;12.77;;;8.07;;
72601;SDS011;60644;55.858;37.390;2023-10-31T07:04:05;13.52;;;8.30;;
72601;SDS011;60644;55.858;37.390;2023-10-31T07:06:30;13.07;;;7.60;;
72601;SDS011;60644;55.858;37.390;2023-10-31T07:08:56;13.90;;;7.80;;
72601;SDS011;60644;55.858;37.390;2023-10-31T07:11:22;14.90;;;8.00;;
72601;SDS011;60644;55.858;37.390;2023-10-31T07:13:48;14.82;;;8.20;;
72601;SDS011;60644;55.858;37.390;2023-10-31T07:16:14;15.53;;;7.97;;
72601;SDS011;60644;55.858;37.390;2023-10-31T07:18:39;16.73;;;7.43;;
72601;SDS011;60644;55.858;37.390;2023-10-31T07:21:05;19.65;;;8.25;;
72601;SDS011;60644;55.858;37.390;2023-10-31T07:23:31;12.43;;;7.57;;
72601;SDS011;60644;55.858;37.390;2023-10-31T07:25:57;14.52;;;7.70;;
72601;SDS011;60644;55.858;37.390;2023-10-31T07:28:22;12.55;;;6.70;;
72601;SDS011;60644;55.858;37.390;2023-10-31T07:30:48;11.50;;;6.87;;
72601;SDS011;60644;55.858;37.390;2023-10-31T07:33:15;13.23;;;7.22;;
72601;SDS011;60644;55.858;37.390;2023-10-31T07:35:41;10.53;;;5.53;;
72601;SDS011;60644;55.858;37.390;2023-10-31T07:38:06;12.77;;;6.82;;
72601;SDS011;60644;55.858;37.390;2023-10-31T07:40:33;12.00;;;6.40;;
72601;SDS011;60644;55.858;37.390;2023-10-31T07:42:58;12.80;;;6.03;;
72601;SDS011;60644;55.858;37.390;2023-10-31T07:45:24;10.10;;;5.77;;
72601;SDS011;60644;55.858;37.390;2023-10-31T07:47:50;12.07;;;4.95;;
72601;SDS011;60644;55.858;37.390;2023-10-31T07:50:16;11.50;;;5.70;;
72601;SDS011;60644;55.858;37.390;2023-10-31T07:52:41;11.65;;;5.30;;
72601;SDS011;60644;55.858;37.390;2023-10-31T07:55:09;12.00;;;6.70;;
72601;SDS011;60644;55.858;37.390;2023-10-31T07:57:36;11.27;;;5.10;;
72601;SDS011;60644;55.858;37.390;2023-10-31T08:00:02;11.90;;;5.70;;
72601;SDS011;60644;55.858;37.390;2023-10-31T08:02:38;9.68;;;5.28;;
72601;SDS011;60644;55.858;37.390;2023-10-31T08:05:04;10.83;;;5.47;;
72601;SDS011;60644;55.858;37.390;2023-10-31T08:07:30;10.50;;;5.93;;
72601;SDS011;60644;55.858;37.390;2023-10-31T08:09:55;10.40;;;5.77;;
72601;SDS011;60644;55.858;37.390;2023-10-31T08:12:21;10.57;;;5.40;;
72601;SDS011;60644;55.858;37.390;2023-10-31T08:14:47;9.70;;;5.25;;
72601;SDS011;60644;55.858;37.390;2023-10-31T08:17:13;15.53;;;5.27;;
72601;SDS011;60644;55.858;37.390;2023-10-31T08:19:39;9.25;;;5.38;;
72601;SDS011;60644;55.858;37.390;2023-10-31T08:22:04;10.57;;;5.40;;
72601;SDS011;60644;55.858;37.390;2023-10-31T08:24:30;11.15;;;5.68;;
72601;SDS011;60644;55.858;37.390;2023-10-31T08:26:56;9.63;;;5.40;;
72601;SDS011;60644;55.858;37.390;2023-10-31T08:29:21;9.87;;;4.67;;
72601;SDS011;60644;55.858;37.390;2023-10-31T08:31:47;10.10;;;4.70;;
72601;SDS011;60644;55.858;37.390;2023-10-31T08:34:12;12.00;;;4.57;;
72601;SDS011;60644;55.858;37.390;2023-10-31T08:36:38;10.43;;;4.88;;
72601;SDS011;60644;55.858;37.390;2023-10-31T08:39:05;8.67;;;4.60;;
72601;SDS011;60644;55.858;37.390;2023-10-31T08:41:31;8.60;;;4.22;;
72601;SDS011;60644;55.858;37.390;2023-10-31T08:43:56;10.27;;;4.10;;
72601;SDS011;60644;55.858;37.390;2023-10-31T08:46:23;7.78;;;3.85;;
72601;SDS011;60644;55.858;37.390;2023-10-31T08:48:49;7.75;;;3.72;;
72601;SDS011;60644;55.858;37.390;2023-10-31T08:51:15;7.45;;;3.60;;
72601;SDS011;60644;55.858;37.390;2023-10-31T08:53:41;10.45;;;4.20;;
72601;SDS011;60644;55.858;37.390;2023-10-31T08:56:06;8.67;;;4.37;;
72601;SDS011;60644;55.858;37.390;2023-10-31T08:58:32;9.43;;;3.75;;
72601;SDS011;60644;55.858;37.390;2023-10-31T09:01:01;7.85;;;3.97;;
72601;SDS011;60644;55.858;37.390;2023-10-31T09:03:27;7.13;;;3.70;;
72601;SDS011;60644;55.858;37.390;2023-10-31T09:05:52;10.33;;;4.00;;
72601;SDS011;60644;55.858;37.390;2023-10-31T09:08:18;7.53;;;3.80;;
72601;SDS011;60644;55.858;37.390;2023-10-31T09:10:44;8.82;;;4.22;;
72601;SDS011;60644;55.858;37.390;2023-10-31T09:13:11;7.68;;;4.38;;
72601;SDS011;60644;55.858;37.390;2023-10-31T09:15:37;7.07;;;3.67;;
72601;SDS011;60644;55.858;37.390;2023-10-31T09:18:03;9.20;;;4.28;;
72601;SDS011;60644;55.858;37.390;2023-10-31T09:20:29;9.37;;;4.67;;
72601;SDS011;60644;55.858;37.390;2023-10-31T09:22:55;10.95;;;5.15;;
72601;SDS011;60644;55.858;37.390;2023-10-31T09:25:21;10.20;;;4.32;;
72601;SDS011;60644;55.858;37.390;2023-10-31T09:27:47;15.37;;;7.60;;
72601;SDS011;60644;55.858;37.390;2023-10-31T09:30:13;7.80;;;3.63;;
72601;SDS011;60644;55.858;37.390;2023-10-31T09:32:38;16.63;;;8.10;;
72601;SDS011;60644;55.858;37.390;2023-10-31T09:35:04;6.87;;;2.77;;
72601;SDS011;60644;55.858;37.390;2023-10-31T09:37:31;19.45;;;10.27;;
72601;SDS011;60644;55.858;37.390;2023-10-31T09:39:56;7.63;;;3.42;;
72601;SDS011;60644;55.858;37.390;2023-10-31T09:42:22;17.30;;;7.40;;
72601;SDS011;60644;55.858;37.390;2023-10-31T09:44:48;12.98;;;5.90;;
72601;SDS011;60644;55.858;37.390;2023-10-31T09:47:13;5.80;;;2.33;;
72601;SDS011;60644;55.858;37.390;2023-10-31T09:49:40;7.05;;;2.63;;
72601;SDS011;60644;55.858;37.390;2023-10-31T09:52:06;6.70;;;2.70;;
72601;SDS011;60644;55.858;37.390;2023-10-31T09:54:32;6.47;;;2.90;;
72601;SDS011;60644;55.858;37.390;2023-10-31T09:56:59;9.43;;;3.05;;
72601;SDS011;60644;55.858;37.390;2023-10-31T09:59:24;8.17;;;3.33;;
72601;SDS011;60644;55.858;37.390;2023-10-31T10:01:50;8.82;;;4.38;;
72601;SDS011;60644;55.858;37.390;2023-10-31T10:04:16;6.67;;;2.77;;
72601;SDS011;60644;55.858;37.390;2023-10-31T10:06:58;8.07;;;3.30;;
72601;SDS011;60644;55.858;37.390;2023-10-31T10:09:24;6.97;;;3.50;;
72601;SDS011;60644;55.858;37.390;2023-10-31T10:11:51;7.85;;;4.20;;
72601;SDS011;60644;55.858;37.390;2023-10-31T10:14:17;8.70;;;3.65;;
72601;SDS011;60644;55.858;37.390;2023-10-31T10:16:43;11.77;;;4.97;;
72601;SDS011;60644;55.858;37.390;2023-10-31T10:19:16;6.73;;;3.47;;
72601;SDS011;60644;55.858;37.390;2023-10-31T10:21:46;7.13;;;2.92;;
72601;SDS011;60644;55.858;37.390;2023-10-31T10:24:12;6.57;;;3.00;;
72601;SDS011;60644;55.858;37.390;2023-10-31T10:26:38;7.47;;;3.30;;
72601;SDS011;60644;55.858;37.390;2023-10-31T10:29:04;8.53;;;3.63;;
72601;SDS011;60644;55.858;37.390;2023-10-31T10:31:29;7.13;;;3.20;;
72601;SDS011;60644;55.858;37.390;2023-10-31T10:33:55;6.83;;;3.20;;
72601;SDS011;60644;55.858;37.390;2023-10-31T10:36:20;9.60;;;3.40;;
72601;SDS011;60644;55.858;37.390;2023-10-31T10:38:47;7.30;;;3.28;;
72601;SDS011;60644;55.858;37.390;2023-10-31T10:41:15;8.55;;;2.55;;
72601;SDS011;60644;55.858;37.390;2023-10-31T10:43:44;5.65;;;2.00;;
72601;SDS011;60644;55.858;37.390;2023-10-31T10:46:10;5.78;;;2.50;;
72601;SDS011;60644;55.858;37.390;2023-10-31T10:48:37;7.03;;;2.67;;
72601;SDS011;60644;55.858;37.390;2023-10-31T10:51:06;9.75;;;3.47;;
72601;SDS011;60644;55.858;37.390;2023-10-31T10:54:19;7.50;;;3.30;;
72601;SDS011;60644;55.858;37.390;2023-10-31T10:56:26;7.03;;;2.58;;
72601;SDS011;60644;55.858;37.390;2023-10-31T11:01:22;24.83;;;10.32;;
72601;SDS011;60644;55.858;37.390;2023-10-31T11:03:49;58.72;;;25.60;;
72601;SDS011;60644;55.858;37.390;2023-10-31T11:06:15;10.73;;;4.60;;
72601;SDS011;60644;55.858;37.390;2023-10-31T11:08:41;7.38;;;3.03;;
72601;SDS011;60644;55.858;37.390;2023-10-31T11:11:08;8.18;;;2.28;;
72601;SDS011;60644;55.858;37.390;2023-10-31T11:13:34;10.88;;;3.17;;
72601;SDS011;60644;55.858;37.390;2023-10-31T11:16:02;8.10;;;2.00;;
72601;SDS011;60644;55.858;37.390;2023-10-31T11:18:29;7.15;;;2.70;;
72601;SDS011;60644;55.858;37.390;2023-10-31T11:20:55;6.35;;;2.72;;
72601;SDS011;60644;55.858;37.390;2023-10-31T11:23:21;5.25;;;2.25;;
72601;SDS011;60644;55.858;37.390;2023-10-31T11:25:49;5.97;;;2.00;;
72601;SDS011;60644;55.858;37.390;2023-10-31T11:28:16;5.45;;;1.98;;
72601;SDS011;60644;55.858;37.390;2023-10-31T11:30:43;6.55;;;2.10;;
72601;SDS011;60644;55.858;37.390;2023-10-31T11:33:12;5.90;;;2.00;;
72601;SDS011;60644;55.858;37.390;2023-10-31T11:35:39;5.47;;;2.28;;
72601;SDS011;60644;55.858;37.390;2023-10-31T11:38:06;6.72;;;2.03;;
72601;SDS011;60644;55.858;37.390;2023-10-31T11:40:32;5.80;;;2.13;;
72601;SDS011;60644;55.858;37.390;2023-10-31T11:43:01;7.97;;;2.60;;
72601;SDS011;60644;55.858;37.390;2023-10-31T11:45:40;5.55;;;2.70;;
72601;SDS011;60644;55.858;37.390;2023-10-31T11:48:14;6.25;;;2.53;;
72601;SDS011;60644;55.858;37.390;2023-10-31T11:50:39;7.20;;;2.07;;
72601;SDS011;60644;55.858;37.390;2023-10-31T11:53:06;7.43;;;2.60;;
72601;SDS011;60644;55.858;37.390;2023-10-31T11:55:39;5.70;;;2.20;;
72601;SDS011;60644;55.858;37.390;2023-10-31T12:00:40;5.60;;;2.40;;
72601;SDS011;60644;55.858;37.390;2023-10-31T12:03:05;6.28;;;2.50;;
72601;SDS011;60644;55.858;37.390;2023-10-31T12:05:31;7.70;;;3.10;;
72601;SDS011;60644;55.858;37.390;2023-10-31T12:07:57;7.32;;;3.00;;
72601;SDS011;60644;55.858;37.390;2023-10-31T12:10:26;8.00;;;4.03;;
72601;SDS011;60644;55.858;37.390;2023-10-31T12:12:57;6.60;;;3.17;;
72601;SDS011;60644;55.858;37.390;2023-10-31T12:15:24;6.28;;;2.80;;
72601;SDS011;60644;55.858;37.390;2023-10-31T12:17:49;6.40;;;2.97;;
72601;SDS011;60644;55.858;37.390;2023-10-31T12:20:15;6.75;;;3.00;;
72601;SDS011;60644;55.858;37.390;2023-10-31T12:22:41;8.73;;;3.70;;
72601;SDS011;60644;55.858;37.390;2023-10-31T12:25:08;6.97;;;3.05;;
72601;SDS011;60644;55.858;37.390;2023-10-31T12:27:55;6.60;;;3.67;;
72601;SDS011;60644;55.858;37.390;2023-10-31T12:30:20;9.50;;;3.37;;
72601;SDS011;60644;55.858;37.390;2023-10-31T12:32:53;8.82;;;3.95;;
72601;SDS011;60644;55.858;37.390;2023-10-31T12:35:20;9.65;;;3.72;;
72601;SDS011;60644;55.858;37.390;2023-10-31T12:37:47;7.85;;;3.97;;
72601;SDS011;60644;55.858;37.390;2023-10-31T12:40:16;8.68;;;4.00;;
72601;SDS011;60644;55.858;37.390;2023-10-31T12:42:45;10.80;;;4.80;;
72601;SDS011;60644;55.858;37.390;2023-10-31T12:45:11;9.95;;;4.70;;
72601;SDS011;60644;55.858;37.390;2023-10-31T12:47:37;11.13;;;4.28;;
72601;SDS011;60644;55.858;37.390;2023-10-31T12:50:06;10.20;;;4.60;;
72601;SDS011;60644;55.858;37.390;2023-10-31T12:52:50;9.30;;;4.87;;
72601;SDS011;60644;55.858;37.390;2023-10-31T12:55:20;11.25;;;4.90;;
72601;SDS011;60644;55.858;37.390;2023-10-31T12:57:46;10.27;;;5.28;;
72601;SDS011;60644;55.858;37.390;2023-10-31T13:00:12;8.77;;;4.60;;
72601;SDS011;60644;55.858;37.390;2023-10-31T13:02:38;10.10;;;4.80;;
72601;SDS011;60644;55.858;37.390;2023-10-31T13:05:11;11.87;;;5.43;;
72601;SDS011;60644;55.858;37.390;2023-10-31T13:07:37;12.82;;;5.32;;
72601;SDS011;60644;55.858;37.390;2023-10-31T13:10:07;12.93;;;6.30;;
72601;SDS011;60644;55.858;37.390;2023-10-31T13:12:35;11.38;;;6.00;;
72601;SDS011;60644;55.858;37.390;2023-10-31T13:15:00;10.70;;;5.40;;
72601;SDS011;60644;55.858;37.390;2023-10-31T13:17:29;11.18;;;5.72;;
72601;SDS011;60644;55.858;37.390;2023-10-31T13:19:56;10.07;;;5.50;;
72601;SDS011;60644;55.858;37.390;2023-10-31T13:22:22;11.73;;;4.75;;
72601;SDS011;60644;55.858;37.390;2023-10-31T13:24:48;12.83;;;5.43;;
72601;SDS011;60644;55.858;37.390;2023-10-31T13:27:14;11.90;;;5.50;;
72601;SDS011;60644;55.858;37.390;2023-10-31T13:29:42;18.88;;;6.18;;
72601;SDS011;60644;55.858;37.390;2023-10-31T13:32:07;13.07;;;6.35;;
72601;SDS011;60644;55.858;37.390;2023-10-31T13:34:34;14.20;;;6.60;;
72601;SDS011;60644;55.858;37.390;2023-10-31T13:37:00;19.73;;;7.47;;
72601;SDS011;60644;55.858;37.390;2023-10-31T13:39:26;14.80;;;6.30;;
72601;SDS011;60644;55.858;37.390;2023-10-31T13:41:51;14.73;;;7.60;;
72601;SDS011;60644;55.858;37.390;2023-10-31T13:44:17;16.75;;;8.10;;
72601;SDS011;60644;55.858;37.390;2023-10-31T13:46:43;12.87;;;7.80;;
72601;SDS011;60644;55.858;37.390;2023-10-31T13:49:08;16.00;;;8.55;;
72601;SDS011;60644;55.858;37.390;2023-10-31T13:51:34;16.67;;;9.77;;
72601;SDS011;60644;55.858;37.390;2023-10-31T13:54:00;18.92;;;9.45;;
72601;SDS011;60644;55.858;37.390;2023-10-31T13:56:25;20.60;;;9.98;;
72601;SDS011;60644;55.858;37.390;2023-10-31T13:58:51;19.77;;;10.30;;
72601;SDS011;60644;55.858;37.390;2023-10-31T14:01:17;17.48;;;10.15;;
72601;SDS011;60644;55.858;37.390;2023-10-31T14:03:44;20.02;;;12.20;;
72601;SDS011;60644;55.858;37.390;2023-10-31T14:06:11;21.83;;;10.93;;
72601;SDS011;60644;55.858;37.390;2023-10-31T14:08:37;19.48;;;11.48;;
72601;SDS011;60644;55.858;37.390;2023-10-31T14:11:03;19.75;;;10.82;;
72601;SDS011;60644;55.858;37.390;2023-10-31T14:13:29;21.97;;;12.17;;
72601;SDS011;60644;55.858;37.390;2023-10-31T14:15:54;24.42;;;14.82;;
72601;SDS011;60644;55.858;37.390;2023-10-31T14:18:20;23.73;;;14.00;;
72601;SDS011;60644;55.858;37.390;2023-10-31T14:20:46;23.00;;;12.45;;
72601;SDS011;60644;55.858;37.390;2023-10-31T14:23:11;20.65;;;12.23;;
72601;SDS011;60644;55.858;37.390;2023-10-31T14:25:37;21.33;;;11.90;;
72601;SDS011;60644;55.858;37.390;2023-10-31T14:28:04;21.40;;;11.23;;